Time;durP1;ratioP1;P1;durP2;ratioP2;P2;SDS_P1;SDS_P2;PMS_P1;PMS_P2;Temp;Humidity;BMP_temperature;BMP_pressure;BME280_temperature;BME280_humidity;BME280_pressure;Samples;Min_cycle;Max_cycle;Signal;HPM_P1;HPM_P2
2022/11/08 00:02:57;;;;;;;;;;;;;;;21.46;29.73;98399.16;4979924;28;617;-78
2022/11/08 00:16:19;;;;;;;;;;;;;;;21.20;29.96;98395.97;4994916;28;1363;-78
2022/11/08 00:18:45;;;;;;;;;;;;;;;21.70;29.29;98403.50;4979522;28;1907;-78
2022/11/08 00:21:11;;;;;;;;;;;;;;;21.64;29.23;98399.59;4978389;28;815;-78
2022/11/08 00:23:36;;;;;;;;;;;;;;;21.20;30.43;98404.47;4962213;28;1145;-78
2022/11/08 00:26:01;;;;;;;;;;;;;;;21.08;30.50;98396.59;4979800;28;752;-78
2022/11/08 00:28:27;;;;;;;;;;;;;;;21.42;29.66;98392.75;4979495;28;1108;-78
2022/11/08 00:30:52;;;;;;;;;;;;;;;21.28;29.70;98399.47;4979247;28;791;-78
2022/11/08 00:33:18;;;;;;;;;;;;;;;21.24;29.81;98393.88;4957613;29;815;-79
2022/11/08 00:39:17;;;;;;;;;;;;;;;21.59;29.54;98397.25;4958004;29;1983;-79
2022/11/08 00:41:43;;;;;;;;;;;;;;;21.35;29.78;98399.38;4958038;29;949;-78
2022/11/08 00:44:08;;;;;;;;;;;;;;;21.24;29.87;98393.88;4957632;29;839;-78
2022/11/08 00:50:08;;;;;;;;;;;;;;;21.13;30.03;98387.59;4957476;29;594;-78
2022/11/08 00:52:33;;;;;;;;;;;;;;;21.42;29.60;98381.44;4957319;29;832;-78
2022/11/08 00:54:59;;;;;;;;;;;;;;;21.44;29.80;98381.78;4957591;29;827;-78
2022/11/08 01:00:59;;;;;;;;;;;;;;;21.26;29.95;98380.09;4957341;29;622;-78
2022/11/08 01:03:25;;;;;;;;;;;;;;;21.06;29.97;98384.91;4944034;28;973;-78
2022/11/08 01:05:51;;;;;;;;;;;;;;;20.97;30.14;98391.13;4977594;28;720;-77
2022/11/08 01:08:16;;;;;;;;;;;;;;;21.06;29.92;98382.09;4994239;28;1574;-79
2022/11/08 01:10:42;;;;;;;;;;;;;;;21.43;29.61;98381.00;4993826;28;1203;-79
2022/11/08 01:13:08;;;;;;;;;;;;;;;21.55;29.42;98368.22;4977340;28;720;-78
2022/11/08 01:15:34;;;;;;;;;;;;;;;21.40;29.30;98372.56;4977662;28;866;-78
2022/11/08 01:18:00;;;;;;;;;;;;;;;21.20;30.04;98373.34;4977442;28;748;-78
2022/11/08 01:20:25;;;;;;;;;;;;;;;21.22;29.97;98372.91;4977255;28;1967;-78
2022/11/08 01:22:51;;;;;;;;;;;;;;;21.25;29.58;98364.34;4976058;28;943;-78
2022/11/08 01:25:16;;;;;;;;;;;;;;;21.52;29.85;98369.09;4960079;28;957;-78
2022/11/08 01:27:42;;;;;;;;;;;;;;;21.68;29.29;98366.34;4976220;28;1047;-78
2022/11/08 01:30:08;;;;;;;;;;;;;;;21.56;29.54;98375.50;4960283;28;1364;-78
2022/11/08 01:32:34;;;;;;;;;;;;;;;21.26;29.59;98377.25;4956741;29;822;-79
2022/11/08 01:34:59;;;;;;;;;;;;;;;21.06;30.13;98379.25;4925142;29;1272;-78
2022/11/08 01:37:24;;;;;;;;;;;;;;;20.99;30.14;98382.22;4940795;29;1120;-78
2022/11/08 01:39:50;;;;;;;;;;;;;;;20.96;30.08;98377.44;4940700;29;1903;-78
2022/11/08 01:42:15;;;;;;;;;;;;;;;21.13;30.03;98373.47;4956943;28;934;-78
2022/11/08 01:44:59;;;;;;;;;;;;;;;21.16;29.98;98375.44;4940875;29;1204;-78
2022/11/08 01:47:25;;;;;;;;;;;;;;;21.44;29.32;98378.97;4924765;29;1029;-78
2022/11/08 01:49:50;;;;;;;;;;;;;;;21.59;28.90;98372.56;4940742;29;1127;-78
2022/11/08 01:52:23;;;;;;;;;;;;;;;21.36;29.41;98366.19;4941124;29;1133;-78
2022/11/08 01:54:49;;;;;;;;;;;;;;;21.16;29.59;98369.78;4958023;28;954;-78
2022/11/08 01:57:15;;;;;;;;;;;;;;;21.20;29.48;98373.34;4975676;28;933;-78
2022/11/08 02:03:15;;;;;;;;;;;;;;;21.65;29.10;98370.03;4976483;28;828;-78
2022/11/08 02:05:41;;;;;;;;;;;;;;;21.45;29.34;98367.22;4976751;28;1149;-78
2022/11/08 02:08:09;;;;;;;;;;;;;;;21.34;29.24;98363.78;4976774;28;719;-78
2022/11/08 02:10:38;;;;;;;;;;;;;;;21.31;29.50;98371.13;4995015;28;1108;-79
2022/11/08 02:13:06;;;;;;;;;;;;;;;21.23;29.40;98380.94;4981867;28;771;-79
2022/11/08 02:15:31;;;;;;;;;;;;;;;21.00;29.75;98372.50;4980888;28;803;-78
2022/11/08 02:17:57;;;;;;;;;;;;;;;21.10;29.75;98376.38;4980915;28;824;-78
2022/11/08 02:20:22;;;;;;;;;;;;;;;21.21;30.01;98377.75;4980509;28;1922;-77
2022/11/08 02:23:03;;;;;;;;;;;;;;;21.44;29.60;98370.47;4980982;28;1399;-78
2022/11/08 02:25:28;;;;;;;;;;;;;;;21.48;29.39;98369.16;4981635;28;994;-79
2022/11/08 02:27:54;;;;;;;;;;;;;;;21.25;29.61;98367.19;4981723;28;1086;-78
2022/11/08 02:30:20;;;;;;;;;;;;;;;20.99;29.97;98376.56;4997123;28;1112;-78
2022/11/08 02:32:46;;;;;;;;;;;;;;;21.11;29.72;98375.94;4964417;28;1229;-78
2022/11/08 02:35:12;;;;;;;;;;;;;;;21.15;29.94;98385.16;4980853;28;1111;-78
2022/11/08 02:37:38;;;;;;;;;;;;;;;21.30;29.70;98380.84;4981399;28;795;-78
2022/11/08 02:40:03;;;;;;;;;;;;;;;21.43;29.34;98378.16;4980084;28;1914;-77
2022/11/08 02:42:29;;;;;;;;;;;;;;;21.45;29.25;98374.91;4981616;28;743;-78
2022/11/08 02:44:54;;;;;;;;;;;;;;;21.29;29.46;98384.88;4981211;28;752;-78
2022/11/08 02:47:20;;;;;;;;;;;;;;;21.19;29.68;98379.41;4981526;28;997;-79
2022/11/08 02:49:45;;;;;;;;;;;;;;;21.18;29.77;98389.13;4979967;28;804;-78
2022/11/08 02:52:11;;;;;;;;;;;;;;;21.05;30.02;98386.16;4981184;28;759;-79
2022/11/08 02:54:36;;;;;;;;;;;;;;;21.20;29.56;98381.84;4980079;28;715;-78
2022/11/08 02:57:02;;;;;;;;;;;;;;;21.45;29.38;98381.38;4959504;28;841;-78
2022/11/08 02:59:27;;;;;;;;;;;;;;;21.41;29.47;98380.66;4959607;29;1883;-78
2022/11/08 03:01:53;;;;;;;;;;;;;;;21.45;29.11;98380.56;4943481;29;900;-78
2022/11/08 03:04:18;;;;;;;;;;;;;;;21.29;29.47;98381.25;4959465;29;716;-78
2022/11/08 03:06:44;;;;;;;;;;;;;;;21.18;29.55;98375.78;4959357;28;766;-78
2022/11/08 03:09:10;;;;;;;;;;;;;;;21.10;29.53;98382.81;4959427;29;784;-78
2022/11/08 03:11:35;;;;;;;;;;;;;;;21.50;29.10;98385.72;4943241;29;818;-78
2022/11/08 03:14:01;;;;;;;;;;;;;;;21.67;28.95;98378.91;4959338;29;1117;-78
2022/11/08 03:16:26;;;;;;;;;;;;;;;21.23;29.60;98386.59;4959420;29;967;-78
2022/11/08 03:18:52;;;;;;;;;;;;;;;21.08;29.75;98388.09;4959154;29;1971;-78
2022/11/08 03:21:17;;;;;;;;;;;;;;;21.00;29.88;98392.31;4958333;28;803;-78
2022/11/08 03:23:42;;;;;;;;;;;;;;;21.31;29.32;98379.63;4958904;28;772;-78
2022/11/08 03:26:08;;;;;;;;;;;;;;;21.37;29.50;98393.28;4959351;28;815;-78
2022/11/08 03:28:33;;;;;;;;;;;;;;;21.43;29.58;98383.03;4974021;28;1198;-78
2022/11/08 03:30:59;;;;;;;;;;;;;;;21.47;29.22;98375.28;4980783;28;783;-78
2022/11/08 03:33:24;;;;;;;;;;;;;;;21.11;29.68;98384.41;4980291;28;775;-78
2022/11/08 03:35:50;;;;;;;;;;;;;;;21.11;29.65;98384.41;4980699;28;847;-78
2022/11/08 03:38:15;;;;;;;;;;;;;;;21.21;29.47;98389.09;4995552;28;748;-78
2022/11/08 03:40:41;;;;;;;;;;;;;;;21.23;29.49;98383.78;4980217;28;1894;-78
2022/11/08 03:43:06;;;;;;;;;;;;;;;21.44;29.41;98387.47;4980173;28;756;-78
2022/11/08 03:45:31;;;;;;;;;;;;;;;21.58;29.11;98381.50;4979041;28;739;-78
2022/11/08 03:47:57;;;;;;;;;;;;;;;21.42;29.15;98375.78;4980124;28;719;-78
2022/11/08 03:50:22;;;;;;;;;;;;;;;21.24;29.54;98388.22;4978519;28;886;-78
2022/11/08 03:52:48;;;;;;;;;;;;;;;21.13;29.87;98387.59;4958397;28;914;-78
2022/11/08 03:55:14;;;;;;;;;;;;;;;21.19;29.91;98388.72;4958257;28;1199;-78
2022/11/08 03:57:40;;;;;;;;;;;;;;;21.43;29.72;98388.69;4954706;28;1148;-78
2022/11/08 04:00:06;;;;;;;;;;;;;;;21.33;29.72;98382.00;4958242;28;1993;-78
2022/11/08 04:02:36;;;;;;;;;;;;;;;21.20;29.63;98387.50;4958057;28;829;-78
2022/11/08 04:05:02;;;;;;;;;;;;;;;21.13;29.78;98381.16;4954884;28;1134;-79
2022/11/08 04:07:27;;;;;;;;;;;;;;;21.24;29.60;98382.56;4957606;28;920;-78
2022/11/08 04:09:53;;;;;;;;;;;;;;;21.24;29.76;98381.75;4957489;29;760;-78
2022/11/08 04:15:15;;;;;;;;;;;;;;;21.51;29.36;98381.66;4957518;29;877;-78
2022/11/08 04:23:09;;;;;;;;;;;;;;;21.35;29.41;98375.91;4942500;29;768;-78
2022/11/08 04:25:34;;;;;;;;;;;;;;;21.07;29.75;98378.03;4957813;28;863;-78
2022/11/08 04:28:00;;;;;;;;;;;;;;;21.37;29.34;98373.44;4925925;29;1226;-78
2022/11/08 04:30:25;;;;;;;;;;;;;;;21.41;29.33;98386.31;4942028;29;756;-78
2022/11/08 04:32:51;;;;;;;;;;;;;;;21.62;29.00;98385.06;4942268;29;929;-78
2022/11/08 04:35:16;;;;;;;;;;;;;;;21.60;29.15;98381.88;4942141;29;842;-78
2022/11/08 04:37:41;;;;;;;;;;;;;;;21.18;29.51;98378.63;4941633;29;782;-78
2022/11/08 04:43:42;;;;;;;;;;;;;;;21.12;29.71;98391.66;4957714;29;829;-78
2022/11/08 04:46:08;;;;;;;;;;;;;;;21.16;29.92;98391.63;4941783;29;1216;-79
2022/11/08 04:48:33;;;;;;;;;;;;;;;21.54;29.10;98383.63;4956201;28;779;-79
2022/11/08 04:51:22;;;;;;;;;;;;;;;21.57;29.34;98388.41;4977846;28;846;-78
2022/11/08 04:53:48;;;;;;;;;;;;;;;21.45;29.08;98387.03;4976606;28;1077;-78
2022/11/08 04:56:14;;;;;;;;;;;;;;;21.09;30.09;98398.22;4960407;28;1076;-78
2022/11/08 05:02:14;;;;;;;;;;;;;;;20.94;30.46;98399.69;4938148;29;693;-78
2022/11/08 05:04:40;;;;;;;;;;;;;;;21.36;29.70;98392.47;4922118;29;1015;-78
2022/11/08 05:07:05;;;;;;;;;;;;;;;21.45;29.52;98397.53;4938209;29;1167;-78
2022/11/08 05:09:30;;;;;;;;;;;;;;;21.45;29.26;98397.53;4903397;29;1318;-78
2022/11/08 05:11:56;;;;;;;;;;;;;;;21.32;29.43;98401.03;4903116;29;859;-78
2022/11/08 05:14:21;;;;;;;;;;;;;;;21.19;29.51;98413.38;4918966;29;1208;-78
2022/11/08 05:16:47;;;;;;;;;;;;;;;21.05;29.88;98411.63;4899730;29;1085;-78
2022/11/08 05:19:12;;;;;;;;;;;;;;;21.35;29.51;98407.88;4900129;29;1994;-78
2022/11/08 05:24:25;;;;;;;;;;;;;;;21.53;29.38;98404.69;4899666;29;868;-78
2022/11/08 05:26:50;;;;;;;;;;;;;;;21.24;29.62;98408.03;4899689;29;788;-78
2022/11/08 05:29:16;;;;;;;;;;;;;;;21.02;30.17;98409.63;4899434;29;1126;-78
2022/11/08 05:31:41;;;;;;;;;;;;;;;21.05;29.73;98408.78;4899660;29;946;-78
2022/11/08 05:34:07;;;;;;;;;;;;;;;21.38;29.71;98398.50;4899977;29;829;-78
2022/11/08 05:40:08;;;;;;;;;;;;;;;21.22;29.62;98401.19;4931788;29;1915;-78
2022/11/08 05:42:33;;;;;;;;;;;;;;;21.09;29.65;98398.22;4940735;29;945;-78
2022/11/08 05:44:58;;;;;;;;;;;;;;;21.32;29.30;98412.34;4936936;29;1376;-78
2022/11/08 05:47:24;;;;;;;;;;;;;;;21.37;29.51;98411.06;4944233;29;760;-78
2022/11/08 05:49:49;;;;;;;;;;;;;;;21.22;29.45;98418.97;4956567;29;956;-78
2022/11/08 05:52:15;;;;;;;;;;;;;;;21.26;29.57;98431.03;4956831;29;759;-78
2022/11/08 05:54:40;;;;;;;;;;;;;;;21.56;29.56;98421.59;4956243;29;774;-77
2022/11/08 05:57:06;;;;;;;;;;;;;;;21.45;29.35;98434.34;4918230;29;914;-77
2022/11/08 05:59:31;;;;;;;;;;;;;;;21.32;29.53;98434.19;4918172;29;1973;-77
2022/11/08 06:01:57;;;;;;;;;;;;;;;21.19;29.72;98436.84;4918345;29;863;-77
2022/11/08 06:04:22;;;;;;;;;;;;;;;21.13;29.65;98444.19;4918613;29;936;-76
2022/11/08 06:06:48;;;;;;;;;;;;;;;21.14;29.71;98445.81;4918333;29;817;-76
2022/11/08 06:09:14;;;;;;;;;;;;;;;21.47;29.60;98448.88;4918400;29;1133;-77
2022/11/08 06:11:39;;;;;;;;;;;;;;;21.57;29.52;98447.88;4918312;29;832;-77
2022/11/08 06:14:05;;;;;;;;;;;;;;;21.65;29.44;98451.34;4918479;29;910;-76
2022/11/08 06:16:30;;;;;;;;;;;;;;;21.63;28.98;98460.31;4945887;29;984;-74
2022/11/08 06:18:56;;;;;;;;;;;;;;;21.70;29.34;98451.66;4923909;29;1982;-76
2022/11/08 06:21:21;;;;;;;;;;;;;;;21.20;29.94;98463.91;4950850;29;1954;-74
2022/11/08 06:23:47;;;;;;;;;;;;;;;21.43;29.80;98456.63;4945731;28;1873;-74
2022/11/08 06:26:12;;;;;;;;;;;;;;;21.36;29.69;98460.41;4955515;28;1624;-74
2022/11/08 06:28:38;;;;;;;;;;;;;;;21.43;29.62;98462.31;4970931;28;1674;-74
2022/11/08 06:31:03;;;;;;;;;;;;;;;21.27;29.94;98469.41;4979089;28;2041;-76
2022/11/08 06:33:29;;;;;;;;;;;;;;;21.29;30.17;98463.31;4977355;28;1885;-74
2022/11/08 06:35:54;;;;;;;;;;;;;;;21.37;29.87;98469.69;4976216;28;1957;-74
2022/11/08 06:38:20;;;;;;;;;;;;;;;21.54;29.59;98474.22;4977148;28;933;-74
2022/11/08 06:40:45;;;;;;;;;;;;;;;21.61;29.41;98473.31;4985222;28;1910;-75
2022/11/08 06:43:11;;;;;;;;;;;;;;;21.39;29.75;98472.88;4978509;28;1660;-80
2022/11/08 06:45:36;;;;;;;;;;;;;;;21.40;29.70;98465.97;4976739;28;1056;-76
2022/11/08 06:48:02;;;;;;;;;;;;;;;21.31;29.84;98478.69;4983357;28;1819;-77
2022/11/08 06:50:28;;;;;;;;;;;;;;;21.29;30.04;98475.44;4975533;28;1128;-77
2022/11/08 06:52:57;;;;;;;;;;;;;;;21.43;29.92;98473.63;4981020;28;2022;-77
2022/11/08 06:55:22;;;;;;;;;;;;;;;21.35;30.05;98472.16;4977453;28;1881;-81
2022/11/08 06:57:48;;;;;;;;;;;;;;;21.47;29.74;98475.16;4985127;28;990;-77
2022/11/08 07:00:14;;;;;;;;;;;;;;;21.23;30.30;98470.72;4991231;28;2131;-79
2022/11/08 07:02:39;;;;;;;;;;;;;;;21.41;29.93;98468.41;4971253;28;1664;-78
2022/11/08 07:05:05;;;;;;;;;;;;;;;21.43;30.48;98473.63;4998912;28;1870;-75
2022/11/08 07:07:30;;;;;;;;;;;;;;;21.08;30.87;98475.81;4991121;28;1391;-73
2022/11/08 07:09:56;;;;;;;;;;;;;;;21.04;31.30;98472.28;4996688;28;918;-73
2022/11/08 07:12:21;;;;;;;;;;;;;;;21.19;31.20;98476.47;4981786;28;1646;-73
2022/11/08 07:14:46;;;;;;;;;;;;;;;21.51;30.99;98475.91;4991548;28;1518;-73
2022/11/08 07:17:12;;;;;;;;;;;;;;;21.68;30.71;98476.00;4987388;28;1694;-73
2022/11/08 07:19:37;;;;;;;;;;;;;;;21.86;30.39;98467.91;4990057;28;1910;-73
2022/11/08 07:22:03;;;;;;;;;;;;;;;21.89;30.39;98474.75;4976880;28;1463;-73
2022/11/08 07:24:28;;;;;;;;;;;;;;;21.70;30.77;98471.47;4979590;28;953;-73
2022/11/08 07:26:54;;;;;;;;;;;;;;;21.79;30.92;98466.03;4968641;28;1439;-73
2022/11/08 07:29:19;;;;;;;;;;;;;;;21.69;31.11;98478.38;4959921;28;1027;-73
2022/11/08 07:31:46;;;;;;;;;;;;;;;21.93;30.68;98472.66;4959663;28;1401;-73
2022/11/08 07:34:11;;;;;;;;;;;;;;;21.97;30.70;98479.06;4960238;28;1023;-73
2022/11/08 07:36:36;;;;;;;;;;;;;;;21.83;31.01;98486.59;4959875;28;897;-73
2022/11/08 07:39:02;;;;;;;;;;;;;;;21.62;31.65;98486.22;4969855;28;2009;-73
2022/11/08 07:41:27;;;;;;;;;;;;;;;21.72;31.24;98483.19;4982212;28;2127;-73
2022/11/08 07:43:53;;;;;;;;;;;;;;;21.82;31.22;98484.22;4978842;28;1849;-73
2022/11/08 07:46:18;;;;;;;;;;;;;;;21.86;31.39;98496.25;4978852;28;957;-73
2022/11/08 07:48:44;;;;;;;;;;;;;;;21.84;31.01;98498.72;4979313;28;1074;-73
2022/11/08 07:51:09;;;;;;;;;;;;;;;21.61;31.71;98495.97;4976816;28;1651;-73
2022/11/08 07:53:34;;;;;;;;;;;;;;;21.78;31.31;98501.28;4979028;28;1010;-73
2022/11/08 07:56:00;;;;;;;;;;;;;;;21.79;31.46;98502.88;4979024;28;929;-73
2022/11/08 07:58:25;;;;;;;;;;;;;;;21.68;31.73;98507.94;4978702;28;1011;-77
2022/11/08 08:00:51;;;;;;;;;;;;;;;21.73;31.39;98501.78;4978927;28;1930;-79
2022/11/08 08:03:16;;;;;;;;;;;;;;;21.79;31.54;98502.06;4979686;28;923;-75
2022/11/08 08:05:42;;;;;;;;;;;;;;;21.76;31.48;98498.09;4977432;28;1022;-77
2022/11/08 08:08:08;;;;;;;;;;;;;;;22.06;30.85;98496.25;4978270;28;898;-77
2022/11/08 08:10:33;;;;;;;;;;;;;;;22.00;31.40;98517.84;4978942;28;879;-77
2022/11/08 08:12:59;;;;;;;;;;;;;;;21.95;31.43;98504.97;4976790;28;1932;-76
2022/11/08 08:15:24;;;;;;;;;;;;;;;22.01;31.35;98508.09;4978522;28;1005;-76
2022/11/08 08:17:50;;;;;;;;;;;;;;;22.06;31.25;98505.56;4976789;28;1953;-76
2022/11/08 08:20:15;;;;;;;;;;;;;;;22.02;31.80;98510.53;4983825;28;1993;-76
2022/11/08 08:22:44;;;;;;;;;;;;;;;22.17;31.63;98498.91;4968736;28;1831;-73
2022/11/08 08:25:09;;;;;;;;;;;;;;;22.20;31.55;98501.66;4959174;28;994;-73
2022/11/08 08:27:35;;;;;;;;;;;;;;;22.03;31.89;98491.47;4955466;28;1043;-74
2022/11/08 08:30:00;;;;;;;;;;;;;;;21.83;32.53;98509.25;4979800;28;1914;-76
2022/11/08 08:32:26;;;;;;;;;;;;;;;22.00;32.10;98506.50;4984256;28;1890;-76
2022/11/08 08:34:51;;;;;;;;;;;;;;;21.76;32.63;98509.41;4982975;28;1799;-74
2022/11/08 08:37:17;;;;;;;;;;;;;;;21.99;32.14;98511.38;4988780;28;1636;-73
2022/11/08 08:39:42;;;;;;;;;;;;;;;22.07;32.14;98495.03;4986020;28;1967;-72
2022/11/08 08:42:07;;;;;;;;;;;;;;;22.23;31.87;98503.63;4986231;28;1499;-74
2022/11/08 08:44:33;;;;;;;;;;;;;;;22.40;32.10;98506.53;4984777;28;945;-77
2022/11/08 08:46:58;;;;;;;;;;;;;;;22.60;31.63;98505.25;4977529;28;914;-72
2022/11/08 08:49:24;;;;;;;;;;;;;;;22.57;31.57;98499.66;4997546;28;988;-72
2022/11/08 08:51:49;;;;;;;;;;;;;;;22.62;31.51;98496.28;4993318;28;1599;-72
2022/11/08 08:54:15;;;;;;;;;;;;;;;22.50;31.75;98502.66;4985242;28;1643;-76
2022/11/08 08:56:40;;;;;;;;;;;;;;;22.05;32.48;98509.63;4982393;28;1600;-73
2022/11/08 08:59:06;;;;;;;;;;;;;;;22.07;32.31;98512.03;4977713;28;1977;-76
2022/11/08 09:01:31;;;;;;;;;;;;;;;22.14;32.00;98509.09;4978270;28;2002;-73
2022/11/08 09:03:57;;;;;;;;;;;;;;;22.24;31.60;98502.41;4980992;28;1081;-72
2022/11/08 09:06:23;;;;;;;;;;;;;;;21.99;31.89;98505.72;4958896;28;1872;-80
2022/11/08 09:08:48;;;;;;;;;;;;;;;22.47;31.43;98503.53;4997455;28;826;-81
2022/11/08 09:11:14;;;;;;;;;;;;;;;22.65;30.89;98492.59;4963006;28;1947;-79
2022/11/08 09:13:39;;;;;;;;;;;;;;;22.34;31.00;98498.53;4986784;28;1757;-82
2022/11/08 09:16:06;;;;;;;;;;;;;;;22.53;31.25;98494.03;4981552;28;1802;-79
2022/11/08 09:18:32;;;;;;;;;;;;;;;22.65;30.47;98494.63;4993541;28;1207;-72
2022/11/08 09:20:57;;;;;;;;;;;;;;;22.66;30.61;98484.88;4990551;28;1922;-74
2022/11/08 09:23:23;;;;;;;;;;;;;;;22.52;30.58;98483.94;4974628;28;1232;-72
2022/11/08 09:25:48;;;;;;;;;;;;;;;22.19;31.12;98483.06;4974438;28;1080;-72
2022/11/08 09:28:14;;;;;;;;;;;;;;;22.33;30.88;98485.59;4974433;28;1336;-74
2022/11/08 09:30:39;;;;;;;;;;;;;;;22.31;31.03;98493.72;4974588;28;940;-77
2022/11/08 09:33:05;;;;;;;;;;;;;;;22.53;30.58;98481.91;4974871;28;1926;-77
2022/11/08 09:36:48;;;;;;;;;;;;;;;22.05;31.30;98475.63;5083931;27;1801;-74
2022/11/08 09:39:13;;;;;;;;;;;;;;;22.22;30.73;98479.34;5093684;28;970;-72
2022/11/08 09:41:42;;;;;;;;;;;;;;;22.03;31.08;98477.31;5092966;28;1012;-73
2022/11/08 09:44:07;;;;;;;;;;;;;;;22.23;31.03;98480.97;5092934;28;864;-70
2022/11/08 09:46:33;;;;;;;;;;;;;;;22.26;30.98;98480.06;5092776;28;974;-74
2022/11/08 09:48:58;;;;;;;;;;;;;;;22.19;30.85;98480.22;5089524;28;1900;-72
2022/11/08 09:51:24;;;;;;;;;;;;;;;22.12;30.93;98508.72;5098842;28;1850;-72
2022/11/08 09:53:56;;;;;;;;;;;;;;;22.18;30.92;98478.66;5106332;28;995;-73
2022/11/08 09:56:28;;;;;;;;;;;;;;;22.31;30.96;98476.72;5104548;28;1988;-72
2022/11/08 09:59:05;;;;;;;;;;;;;;;22.43;30.38;98471.59;5063105;28;1772;-74
2022/11/08 10:01:31;;;;;;;;;;;;;;;22.02;30.98;98470.03;5101911;28;1922;-71
2022/11/08 10:03:57;;;;;;;;;;;;;;;21.75;31.52;98473.81;5099657;28;1270;-75
2022/11/08 10:06:26;;;;;;;;;;;;;;;21.29;32.36;98478.28;5085467;28;1902;-74
2022/11/08 10:08:52;;;;;;;;;;;;;;;21.25;32.42;98474.72;5075477;28;2271;-74
2022/11/08 10:11:33;;;;;;;;;;;;;;;21.06;32.49;98467.75;5110456;28;1093;-74
2022/11/08 10:14:10;;;;;;;;;;;;;;;21.03;32.26;98473.47;5093172;28;968;-74
2022/11/08 10:16:45;;;;;;;;;;;;;;;20.78;32.57;98477.53;5093407;28;2108;-75
2022/11/08 10:19:10;;;;;;;;;;;;;;;20.52;32.99;98462.19;5089317;28;1166;-76
2022/11/08 10:21:49;;;;;;;;;;;;;;;20.78;32.57;98474.69;5086655;28;964;-76
2022/11/08 10:24:23;;;;;;;;;;;;;;;20.76;32.54;98471.47;5071000;28;988;-75
2022/11/08 10:26:49;;;;;;;;;;;;;;;20.80;32.03;98465.78;5068849;28;1049;-75
2022/11/08 10:29:22;;;;;;;;;;;;;;;20.81;32.12;98468.16;5069410;28;1118;-75
2022/11/08 10:31:48;;;;;;;;;;;;;;;21.06;31.51;98470.59;5052155;28;1175;-75
2022/11/08 10:34:14;;;;;;;;;;;;;;;20.97;31.69;98469.53;5036104;28;911;-76
2022/11/08 10:36:43;;;;;;;;;;;;;;;20.79;31.82;98467.00;5051607;28;1914;-76
2022/11/08 10:39:27;;;;;;;;;;;;;;;20.93;31.79;98466.75;5068446;28;1339;-76
2022/11/08 10:42:11;;;;;;;;;;;;;;;20.92;31.54;98467.19;5012322;28;1620;-76
2022/11/08 10:44:37;;;;;;;;;;;;;;;20.71;31.86;98463.47;5020072;28;1032;-76
2022/11/08 10:47:03;;;;;;;;;;;;;;;20.79;31.64;98467.81;4989377;28;1563;-75
2022/11/08 10:49:30;;;;;;;;;;;;;;;20.92;31.17;98472.84;4983321;28;1467;-75
2022/11/08 10:51:56;;;;;;;;;;;;;;;20.93;31.10;98463.13;4999625;28;938;-75
2022/11/08 10:54:41;;;;;;;;;;;;;;;20.96;31.01;98454.59;5015938;28;1974;-76
2022/11/08 10:57:07;;;;;;;;;;;;;;;20.86;31.44;98457.59;5000957;28;1890;-76
2022/11/08 10:59:32;;;;;;;;;;;;;;;20.82;31.23;98452.00;5000993;28;1020;-76
2022/11/08 11:01:58;;;;;;;;;;;;;;;20.97;30.98;98452.56;5034092;28;970;-76
2022/11/08 11:04:27;;;;;;;;;;;;;;;21.03;30.73;98453.66;5038358;28;1101;-75
2022/11/08 11:06:52;;;;;;;;;;;;;;;21.09;30.46;98451.97;5024993;28;1404;-76
2022/11/08 11:09:19;;;;;;;;;;;;;;;20.79;31.00;98453.66;5055476;28;1045;-76
2022/11/08 11:11:44;;;;;;;;;;;;;;;20.74;31.21;98445.66;5038444;28;1454;-77
2022/11/08 11:14:20;;;;;;;;;;;;;;;20.57;31.36;98449.56;5054444;28;1732;-77
2022/11/08 11:17:14;;;;;;;;;;;;;;;20.69;31.18;98446.16;5038495;28;927;-77
2022/11/08 11:19:41;;;;;;;;;;;;;;;20.55;31.44;98447.16;5063974;28;1010;-75
2022/11/08 11:22:07;;;;;;;;;;;;;;;20.72;30.82;98453.78;5095311;28;985;-75
2022/11/08 11:24:33;;;;;;;;;;;;;;;21.10;30.95;98450.75;5078337;28;965;-77
2022/11/08 11:27:05;;;;;;;;;;;;;;;20.92;31.89;98451.03;5078661;28;1207;-75
2022/11/08 11:29:34;;;;;;;;;;;;;;;21.02;31.99;98449.25;5078615;28;991;-78
2022/11/08 11:32:18;;;;;;;;;;;;;;;20.90;32.16;98452.69;5075173;28;1648;-75
2022/11/08 11:34:53;;;;;;;;;;;;;;;20.80;31.91;98443.16;5063594;28;1914;-75
2022/11/08 11:37:38;;;;;;;;;;;;;;;20.87;31.87;98442.22;5075201;28;973;-75
2022/11/08 11:40:25;;;;;;;;;;;;;;;20.87;31.49;98430.91;5059365;28;974;-75
2022/11/08 11:42:59;;;;;;;;;;;;;;;20.58;31.86;98437.06;5038080;28;953;-75
2022/11/08 11:45:37;;;;;;;;;;;;;;;20.81;31.49;98439.88;5044265;28;943;-75
2022/11/08 11:48:16;;;;;;;;;;;;;;;20.64;31.82;98441.00;5036850;28;911;-75
2022/11/08 11:50:45;;;;;;;;;;;;;;;21.01;32.02;98436.34;5036204;28;955;-75
2022/11/08 11:53:17;;;;;;;;;;;;;;;21.01;32.35;98437.13;5036105;28;927;-75
2022/11/08 11:55:43;;;;;;;;;;;;;;;20.60;32.58;98434.59;5054242;28;1910;-74
2022/11/08 11:58:13;;;;;;;;;;;;;;;20.85;31.95;98439.03;5054040;28;975;-75
2022/11/08 12:00:39;;;;;;;;;;;;;;;20.68;31.98;98435.28;5037816;28;969;-75
2022/11/08 12:03:24;;;;;;;;;;;;;;;20.67;32.00;98431.63;5037928;28;955;-75
2022/11/08 12:05:53;;;;;;;;;;;;;;;20.99;31.90;98439.59;5037635;28;939;-75
2022/11/08 12:08:47;;;;;;;;;;;;;;;21.00;31.83;98443.22;5054189;28;1028;-75
2022/11/08 12:11:19;;;;;;;;;;;;;;;20.61;32.58;98435.38;5014802;28;1039;-75
2022/11/08 12:13:50;;;;;;;;;;;;;;;20.78;32.23;98431.47;5014355;28;1168;-75
2022/11/08 12:16:26;;;;;;;;;;;;;;;20.80;31.77;98426.97;5014206;28;1910;-75
2022/11/08 12:19:05;;;;;;;;;;;;;;;20.82;31.78;98423.72;4997783;28;975;-75
2022/11/08 12:21:42;;;;;;;;;;;;;;;20.77;31.64;98427.81;4997723;28;939;-75
2022/11/08 12:24:13;;;;;;;;;;;;;;;20.63;32.29;98430.91;4998064;28;1015;-75
2022/11/08 12:26:52;;;;;;;;;;;;;;;20.91;31.98;98426.00;5014461;28;933;-75
2022/11/08 12:29:24;;;;;;;;;;;;;;;21.19;31.37;98425.53;4997786;28;1103;-75
2022/11/08 12:32:03;;;;;;;;;;;;;;;20.91;31.71;98437.31;5014282;28;958;-75
2022/11/08 12:34:48;;;;;;;;;;;;;;;20.91;31.26;98437.31;5013771;28;1910;-74
2022/11/08 12:37:22;;;;;;;;;;;;;;;20.81;31.23;98434.22;5013935;28;1001;-75
2022/11/08 12:40:01;;;;;;;;;;;;;;;20.66;31.46;98435.69;5014084;28;1080;-75
2022/11/08 12:42:39;;;;;;;;;;;;;;;20.67;31.66;98428.00;4997806;28;1073;-75
2022/11/08 12:45:12;;;;;;;;;;;;;;;20.84;31.66;98437.44;5014007;28;1025;-75
2022/11/08 12:47:37;;;;;;;;;;;;;;;21.23;31.32;98431.88;5014841;28;986;-75
2022/11/08 12:50:21;;;;;;;;;;;;;;;20.83;31.74;98430.16;5035790;28;1112;-75
2022/11/08 12:52:46;;;;;;;;;;;;;;;20.59;31.87;98426.53;5035822;28;1220;-75
2022/11/08 12:55:15;;;;;;;;;;;;;;;20.72;31.33;98433.97;5035827;28;1977;-74
2022/11/08 12:57:41;;;;;;;;;;;;;;;21.00;30.84;98435.53;5034665;28;931;-75
2022/11/08 13:00:07;;;;;;;;;;;;;;;20.71;31.16;98435.22;5034902;28;920;-74
2022/11/08 13:02:35;;;;;;;;;;;;;;;20.74;31.40;98433.56;5034629;28;971;-75
2022/11/08 13:05:19;;;;;;;;;;;;;;;20.64;31.20;98441.00;5035592;28;928;-75
2022/11/08 13:07:47;;;;;;;;;;;;;;;20.74;31.53;98437.19;5035408;28;895;-75
2022/11/08 13:10:28;;;;;;;;;;;;;;;20.94;30.86;98442.94;5035663;28;883;-75
2022/11/08 13:12:53;;;;;;;;;;;;;;;21.04;31.23;98435.50;5035694;28;1141;-74
2022/11/08 13:15:24;;;;;;;;;;;;;;;20.65;31.40;98442.59;5035346;28;1921;-74
2022/11/08 13:18:10;;;;;;;;;;;;;;;20.83;30.99;98438.66;5034381;28;906;-74
2022/11/08 13:20:37;;;;;;;;;;;;;;;20.42;31.74;98434.03;5035490;28;939;-75
2022/11/08 13:23:05;;;;;;;;;;;;;;;20.79;31.19;98438.72;5035337;28;920;-75
2022/11/08 13:25:31;;;;;;;;;;;;;;;21.01;31.09;98436.34;5034354;28;1061;-74
2022/11/08 13:27:56;;;;;;;;;;;;;;;21.32;30.46;98440.66;5033889;28;953;-74
2022/11/08 13:30:22;;;;;;;;;;;;;;;20.80;31.01;98440.31;5034560;28;977;-74
2022/11/08 13:32:52;;;;;;;;;;;;;;;20.76;30.90;98431.91;5035130;28;932;-75
2022/11/08 13:35:21;;;;;;;;;;;;;;;20.72;30.95;98445.28;5034368;28;1896;-74
2022/11/08 13:37:59;;;;;;;;;;;;;;;20.61;31.14;98441.84;5035414;28;899;-75
2022/11/08 13:40:30;;;;;;;;;;;;;;;20.88;31.00;98452.31;5035021;28;856;-74
2022/11/08 13:42:57;;;;;;;;;;;;;;;20.98;30.78;98437.19;5035003;28;1187;-74
2022/11/08 13:45:24;;;;;;;;;;;;;;;20.99;30.81;98441.63;5035419;28;923;-75
2022/11/08 13:47:52;;;;;;;;;;;;;;;20.57;31.20;98434.63;5034359;28;952;-74
2022/11/08 13:50:30;;;;;;;;;;;;;;;20.80;31.03;98441.13;5034741;28;990;-75
2022/11/08 13:53:09;;;;;;;;;;;;;;;20.67;31.02;98440.13;5033768;28;1000;-75
2022/11/08 13:55:40;;;;;;;;;;;;;;;20.88;31.03;98438.16;5035399;28;1902;-74